createdAt,value
2022-08-17T00:00:43.879Z,3.65
2022-08-17T00:03:28.497Z,3.63
2022-08-17T00:06:12.203Z,3.45
2022-08-17T00:08:47.371Z,4.47
2022-08-17T00:11:30.294Z,3.45
2022-08-17T00:16:55.828Z,3.45
2022-08-17T00:19:26.889Z,3.90
2022-08-17T00:22:31.501Z,3.92
2022-08-17T00:24:46.922Z,2.95
2022-08-17T00:27:15.410Z,3.33
2022-08-17T00:29:45.877Z,2.78
2022-08-17T00:33:22.800Z,3.60
2022-08-17T00:35:08.716Z,3.38
2022-08-17T00:37:37.420Z,3.40
2022-08-17T00:40:07.867Z,3.08
2022-08-17T00:42:36.492Z,3.78
2022-08-17T00:45:08.293Z,3.58
2022-08-17T00:47:36.890Z,3.65
2022-08-17T00:50:07.621Z,3.03
2022-08-17T00:52:39.493Z,3.40
2022-08-17T00:55:08.390Z,3.70
2022-08-17T00:57:40.765Z,3.90
2022-08-17T01:00:17.991Z,3.72
2022-08-17T01:02:46.775Z,3.58
2022-08-17T01:05:21.241Z,3.55
2022-08-17T01:07:51.144Z,3.47
2022-08-17T01:10:59.223Z,3.33
2022-08-17T01:13:12.840Z,3.38
2022-08-17T01:16:26.472Z,3.20
2022-08-17T01:19:01.561Z,3.40
2022-08-17T01:22:11.292Z,3.45
2022-08-17T01:24:48.000Z,3.80
2022-08-17T01:27:18.475Z,3.25
2022-08-17T01:29:52.450Z,3.92
2022-08-17T01:32:21.261Z,3.45
2022-08-17T01:34:51.018Z,3.60
2022-08-17T01:37:21.765Z,3.58
2022-08-17T01:39:56.956Z,3.35
2022-08-17T01:42:32.167Z,3.47
2022-08-17T01:45:07.641Z,3.88
2022-08-17T01:47:37.522Z,3.30
2022-08-17T01:50:13.450Z,4.00
2022-08-17T01:52:43.963Z,4.30
2022-08-17T01:55:13.391Z,3.72
2022-08-17T01:57:42.020Z,3.70
2022-08-17T02:00:11.080Z,3.45
2022-08-17T02:02:39.964Z,3.83
2022-08-17T02:05:08.754Z,3.90
2022-08-17T02:07:59.375Z,3.83
2022-08-17T02:10:33.726Z,5.05
2022-08-17T02:13:04.455Z,4.13
2022-08-17T02:15:34.990Z,3.80
2022-08-17T02:18:04.560Z,3.90
2022-08-17T02:20:41.609Z,3.90
2022-08-17T02:23:12.614Z,3.88
2022-08-17T02:25:43.621Z,3.72
2022-08-17T02:28:12.591Z,3.90
2022-08-17T02:31:00.886Z,4.38
2022-08-17T02:33:41.746Z,4.32
2022-08-17T02:36:13.062Z,4.38
2022-08-17T02:38:42.624Z,4.68
2022-08-17T02:41:13.224Z,4.40
2022-08-17T02:43:42.114Z,4.50
2022-08-17T02:46:13.060Z,3.95
2022-08-17T02:48:42.208Z,4.40
2022-08-17T02:51:10.909Z,4.65
2022-08-17T02:53:39.375Z,4.40
2022-08-17T02:56:07.869Z,4.80
2022-08-17T02:58:36.543Z,4.72
2022-08-17T03:01:06.670Z,4.80
2022-08-17T03:03:39.030Z,4.45
2022-08-17T03:06:08.382Z,4.55
2022-08-17T03:08:38.675Z,3.97
2022-08-17T03:11:07.113Z,4.68
2022-08-17T03:13:36.211Z,5.00
2022-08-17T03:16:05.088Z,5.13
2022-08-17T03:18:33.601Z,4.50
2022-08-17T03:21:04.690Z,5.60
2022-08-17T03:23:33.261Z,5.53
2022-08-17T03:26:01.775Z,5.63
2022-08-17T03:28:31.097Z,5.97
2022-08-17T03:30:59.545Z,5.78
2022-08-17T03:33:28.005Z,5.07
2022-08-17T03:35:56.785Z,6.03
2022-08-17T03:38:25.702Z,5.53
2022-08-17T03:40:56.413Z,4.97
2022-08-17T03:43:31.112Z,4.82
2022-08-17T03:46:28.327Z,5.25
2022-08-17T03:49:25.053Z,4.88
2022-08-17T03:52:14.186Z,5.15
2022-08-17T03:55:01.936Z,4.80
2022-08-17T03:57:30.942Z,4.70
2022-08-17T04:00:00.218Z,4.47
2022-08-17T04:02:34.765Z,4.80
2022-08-17T04:05:03.746Z,5.30
2022-08-17T04:07:32.375Z,5.15
2022-08-17T04:10:01.275Z,6.63
2022-08-17T04:12:31.331Z,6.03
2022-08-17T04:15:00.228Z,5.47
2022-08-17T04:17:29.603Z,5.28
2022-08-17T04:19:58.289Z,5.57
2022-08-17T04:22:31.184Z,5.50
2022-08-17T04:25:18.526Z,6.15
2022-08-17T04:27:48.575Z,5.65
2022-08-17T04:30:17.317Z,6.18
2022-08-17T04:33:08.842Z,5.70
2022-08-17T04:35:50.285Z,5.90
2022-08-17T04:38:25.725Z,5.72
2022-08-17T04:41:13.419Z,5.72
2022-08-17T04:43:43.385Z,5.40
2022-08-17T04:46:18.588Z,4.95
2022-08-17T04:48:50.294Z,6.00
2022-08-17T04:51:34.820Z,5.88
2022-08-17T04:54:06.614Z,6.63
2022-08-17T04:56:36.061Z,6.93
2022-08-17T04:59:16.915Z,6.15
2022-08-17T05:01:47.141Z,6.40
2022-08-17T05:04:33.765Z,6.13
2022-08-17T05:07:05.000Z,5.68
2022-08-17T05:09:33.673Z,6.35
2022-08-17T05:12:02.975Z,6.05
2022-08-17T05:14:32.440Z,6.88
2022-08-17T05:17:04.538Z,7.20
2022-08-17T05:19:36.182Z,7.25
2022-08-17T05:22:06.883Z,7.53
2022-08-17T05:24:40.795Z,8.32
2022-08-17T05:27:23.426Z,8.10
2022-08-17T05:29:52.551Z,7.35
2022-08-17T05:32:37.773Z,7.53
2022-08-17T05:35:09.181Z,7.88
2022-08-17T05:37:38.029Z,6.85
2022-08-17T05:40:08.027Z,8.50
2022-08-17T05:42:36.741Z,8.20
2022-08-17T05:45:06.251Z,7.68
2022-08-17T05:47:34.671Z,7.28
2022-08-17T05:50:09.582Z,7.78
2022-08-17T05:53:04.062Z,7.65
2022-08-17T05:55:59.225Z,7.22
2022-08-17T05:58:59.413Z,7.07
2022-08-17T06:01:58.492Z,6.53
2022-08-17T06:04:56.308Z,5.80
2022-08-17T06:07:47.484Z,5.65
2022-08-17T06:10:21.404Z,6.45
2022-08-17T06:13:32.112Z,6.78
2022-08-17T06:16:33.466Z,8.05
2022-08-17T06:19:21.094Z,8.68
2022-08-17T06:21:53.184Z,7.53
2022-08-17T06:24:43.834Z,6.63
2022-08-17T06:27:39.265Z,6.70
2022-08-17T06:30:09.907Z,6.95
2022-08-17T06:32:41.766Z,9.07
2022-08-17T06:35:14.931Z,7.70
2022-08-17T06:38:04.695Z,7.60
2022-08-17T06:40:56.706Z,5.80
2022-08-17T06:43:43.116Z,6.30
2022-08-17T06:46:41.465Z,6.57
2022-08-17T06:49:30.578Z,6.80
2022-08-17T06:52:03.444Z,6.68
2022-08-17T06:54:59.415Z,6.28
2022-08-17T06:57:38.144Z,4.15
2022-08-17T07:00:20.244Z,6.68
2022-08-17T07:03:00.585Z,5.15
2022-08-17T07:05:52.394Z,4.85
2022-08-17T07:08:38.584Z,4.07
2022-08-17T07:11:19.592Z,4.35
2022-08-17T07:14:07.573Z,4.63
2022-08-17T07:16:48.124Z,4.20
2022-08-17T07:19:17.781Z,3.63
2022-08-17T07:22:20.744Z,3.97
2022-08-17T07:25:00.843Z,4.53
2022-08-17T07:27:46.255Z,4.30
2022-08-17T07:30:31.165Z,3.88
2022-08-17T07:33:14.380Z,4.10
2022-08-17T07:35:44.509Z,4.72
2022-08-17T07:38:24.896Z,3.70
2022-08-17T07:41:01.456Z,3.30
2022-08-17T07:43:39.819Z,3.65
2022-08-17T07:46:46.803Z,3.20
2022-08-17T07:49:15.393Z,3.40
2022-08-17T07:51:43.990Z,3.88
2022-08-17T07:54:28.003Z,3.92
2022-08-17T07:57:15.073Z,4.07
2022-08-17T08:00:12.810Z,3.72
2022-08-17T08:02:47.781Z,3.70
2022-08-17T08:05:49.416Z,4.32
2022-08-17T08:08:28.321Z,3.22
2022-08-17T08:11:11.999Z,3.90
2022-08-17T08:13:44.043Z,4.80
2022-08-17T08:16:29.378Z,3.75
2022-08-17T08:19:00.961Z,4.18
2022-08-17T08:21:49.573Z,4.63
2022-08-17T08:24:33.095Z,4.85
2022-08-17T08:27:48.909Z,4.22
2022-08-17T08:30:21.614Z,3.60
2022-08-17T08:32:53.762Z,4.18
2022-08-17T08:35:33.882Z,3.40
2022-08-17T08:38:14.767Z,4.88
2022-08-17T08:40:48.765Z,4.80
2022-08-17T08:43:52.247Z,3.65
2022-08-17T08:46:50.746Z,3.78
2022-08-17T08:50:03.398Z,2.80
2022-08-17T08:52:51.562Z,3.35
2022-08-17T08:55:42.991Z,2.88
2022-08-17T08:58:43.853Z,2.92
2022-08-17T09:01:43.350Z,3.45
2022-08-17T09:05:13.771Z,2.75
2022-08-17T09:08:09.410Z,2.63
2022-08-17T09:12:02.911Z,3.03
2022-08-17T09:14:46.959Z,2.85
2022-08-17T09:17:40.992Z,2.20
2022-08-17T09:20:27.595Z,2.50
2022-08-17T09:23:18.913Z,2.80
2022-08-17T09:26:16.492Z,2.30
2022-08-17T09:28:52.332Z,2.38
2022-08-17T09:31:48.724Z,2.28
2022-08-17T09:34:48.622Z,2.17
2022-08-17T09:37:56.482Z,2.50
2022-08-17T09:40:34.791Z,2.35
2022-08-17T09:43:32.664Z,2.70
2022-08-17T09:46:24.153Z,2.67
2022-08-17T09:48:59.674Z,2.45
2022-08-17T09:51:40.645Z,2.50
2022-08-17T09:54:39.693Z,2.60
2022-08-17T09:57:34.852Z,2.30
2022-08-17T10:00:13.766Z,2.30
2022-08-17T10:02:54.745Z,2.28
2022-08-17T10:05:37.540Z,2.30
2022-08-17T10:08:53.032Z,1.90
2022-08-17T10:11:55.301Z,2.40
2022-08-17T10:14:53.528Z,2.17
2022-08-17T10:18:03.292Z,2.20
2022-08-17T10:21:34.612Z,2.65
2022-08-17T10:24:25.991Z,1.73
2022-08-17T10:26:57.146Z,2.17
2022-08-17T10:29:49.819Z,2.47
2022-08-17T10:32:34.050Z,2.05
2022-08-17T10:35:18.903Z,2.33
2022-08-17T10:38:05.784Z,2.47
2022-08-17T10:40:49.864Z,2.70
2022-08-17T10:44:37.474Z,2.42
2022-08-17T10:46:55.654Z,2.47
2022-08-17T10:49:29.873Z,2.28
2022-08-17T10:52:01.665Z,2.50
2022-08-17T10:54:49.008Z,2.30
2022-08-17T10:57:32.456Z,2.50
2022-08-17T11:00:18.935Z,2.90
2022-08-17T11:02:52.799Z,3.10
2022-08-17T11:05:50.513Z,3.42
2022-08-17T11:08:37.837Z,3.65
2022-08-17T11:11:36.463Z,3.40
2022-08-17T11:14:24.474Z,3.17
2022-08-17T11:17:37.464Z,3.45
2022-08-17T11:20:41.473Z,3.28
2022-08-17T11:24:06.957Z,3.35
2022-08-17T11:26:37.793Z,3.60
2022-08-17T11:29:17.715Z,3.38
2022-08-17T11:32:11.090Z,3.65
2022-08-17T11:34:42.017Z,3.88
2022-08-17T11:37:45.333Z,3.50
2022-08-17T11:44:02.002Z,3.65
2022-08-17T11:47:20.973Z,4.10
2022-08-17T11:50:57.134Z,4.18
2022-08-17T11:53:38.017Z,2.92
2022-08-17T11:56:30.385Z,4.07
2022-08-17T11:59:00.763Z,3.75
2022-08-17T12:01:56.114Z,3.30
2022-08-17T12:04:33.886Z,4.85
2022-08-17T12:07:21.492Z,3.60
2022-08-17T12:09:50.875Z,3.47
2022-08-17T12:12:30.085Z,3.88
2022-08-17T12:15:09.989Z,3.30
2022-08-17T12:17:42.030Z,3.63
2022-08-17T12:20:21.692Z,3.80
2022-08-17T12:23:05.078Z,4.18
2022-08-17T12:25:51.765Z,4.63
2022-08-17T12:28:31.153Z,4.50
2022-08-17T12:31:08.553Z,3.92
2022-08-17T12:33:37.772Z,4.75
2022-08-17T12:36:08.856Z,5.15
2022-08-17T12:38:37.974Z,3.60
2022-08-17T12:41:26.483Z,4.70
2022-08-17T12:44:14.626Z,4.57
2022-08-17T12:47:10.053Z,4.28
2022-08-17T12:49:44.414Z,4.32
2022-08-17T12:52:17.165Z,4.32
2022-08-17T12:55:15.224Z,4.95
2022-08-17T12:57:47.324Z,4.25
2022-08-17T13:00:17.965Z,3.92
2022-08-17T13:03:02.101Z,3.90
2022-08-17T13:05:41.266Z,4.57
2022-08-17T13:08:18.692Z,4.55
2022-08-17T13:11:16.446Z,4.72
2022-08-17T13:13:55.158Z,4.95
2022-08-17T13:16:27.383Z,4.50
2022-08-17T13:19:40.794Z,4.13
2022-08-17T13:22:13.065Z,4.38
2022-08-17T13:24:53.421Z,4.85
2022-08-17T13:27:24.364Z,4.50
2022-08-17T13:29:59.985Z,5.03
2022-08-17T13:32:36.363Z,4.43
2022-08-17T13:35:50.002Z,4.00
2022-08-17T13:38:41.392Z,4.38
2022-08-17T13:41:09.944Z,4.85
2022-08-17T13:43:45.214Z,4.88
2022-08-17T13:46:27.610Z,3.90
2022-08-17T13:49:05.134Z,5.18
2022-08-17T13:51:55.356Z,4.60
2022-08-17T13:54:35.725Z,4.78
2022-08-17T13:57:19.174Z,4.25
2022-08-17T13:59:53.825Z,4.35
2022-08-17T14:02:27.771Z,4.78
2022-08-17T14:04:58.733Z,4.72
2022-08-17T14:07:36.751Z,4.40
2022-08-17T14:10:13.885Z,4.10
2022-08-17T14:12:43.735Z,3.80
2022-08-17T14:15:15.645Z,4.75
2022-08-17T14:17:44.272Z,4.72
2022-08-17T14:20:13.364Z,4.10
2022-08-17T14:22:46.853Z,4.13
2022-08-17T14:25:27.296Z,4.43
2022-08-17T14:27:56.456Z,4.97
2022-08-17T14:30:28.907Z,4.53
2022-08-17T14:32:59.214Z,4.85
2022-08-17T14:35:29.390Z,4.47
2022-08-17T14:37:58.116Z,4.50
2022-08-17T14:40:27.643Z,4.93
2022-08-17T14:42:57.992Z,4.95
2022-08-17T14:45:29.653Z,4.43
2022-08-17T14:48:04.604Z,4.65
2022-08-17T14:50:35.335Z,4.18
2022-08-17T14:53:06.276Z,3.92
2022-08-17T14:55:35.046Z,3.97
2022-08-17T14:58:04.384Z,4.68
2022-08-17T15:00:33.974Z,4.63
2022-08-17T15:03:02.884Z,5.10
2022-08-17T15:05:36.848Z,4.72
2022-08-17T15:08:05.979Z,4.95
2022-08-17T15:10:34.868Z,5.10
2022-08-17T15:13:03.555Z,4.50
2022-08-17T15:15:32.369Z,5.05
2022-08-17T15:18:01.479Z,4.57
2022-08-17T15:20:30.552Z,4.50
2022-08-17T15:22:59.558Z,4.90
2022-08-17T15:25:30.530Z,4.28
2022-08-17T15:27:59.343Z,4.50
2022-08-17T15:30:28.868Z,4.22
2022-08-17T15:33:02.061Z,4.90
2022-08-17T15:35:33.315Z,4.10
2022-08-17T15:38:11.054Z,4.50
2022-08-17T15:40:47.651Z,3.90
2022-08-17T15:43:27.421Z,4.10
2022-08-17T15:46:05.347Z,4.72
2022-08-17T15:48:45.135Z,4.28
2022-08-17T15:51:21.106Z,4.43
2022-08-17T15:54:19.201Z,4.18
2022-08-17T15:56:51.821Z,4.05
2022-08-17T15:59:20.331Z,4.82
2022-08-17T16:03:01.723Z,4.72
2022-08-17T16:04:38.115Z,5.25
2022-08-17T16:07:12.728Z,4.28
2022-08-17T16:09:42.338Z,4.47
2022-08-17T16:12:17.441Z,4.45
2022-08-17T16:14:47.707Z,4.53
2022-08-17T16:17:38.325Z,5.10
2022-08-17T16:20:08.255Z,4.82
2022-08-17T16:22:42.695Z,5.15
2022-08-17T16:25:20.134Z,4.90
2022-08-17T16:27:53.733Z,4.85
2022-08-17T16:30:25.436Z,4.30
2022-08-17T16:32:54.655Z,4.68
2022-08-17T16:35:25.595Z,5.03
2022-08-17T16:37:56.055Z,5.60
2022-08-17T16:40:28.315Z,4.45
2022-08-17T16:42:57.811Z,3.85
2022-08-17T16:45:29.416Z,4.70
2022-08-17T16:48:01.854Z,4.75
2022-08-17T16:50:32.272Z,5.32
2022-08-17T16:53:11.175Z,4.68
2022-08-17T16:55:39.693Z,4.63
2022-08-17T16:58:09.194Z,4.72
2022-08-17T17:00:38.033Z,5.10
2022-08-17T17:03:19.146Z,5.25
2022-08-17T17:06:07.514Z,5.65
2022-08-17T17:08:46.869Z,5.03
2022-08-17T17:11:48.638Z,5.00
2022-08-17T17:14:28.948Z,5.20
2022-08-17T17:17:34.536Z,4.78
2022-08-17T17:20:15.774Z,4.60
2022-08-17T17:22:57.555Z,4.30
2022-08-17T17:25:33.589Z,4.22
2022-08-17T17:28:17.986Z,4.03
2022-08-17T17:30:52.290Z,3.83
2022-08-17T17:33:38.842Z,4.55
2022-08-17T17:36:43.900Z,3.92
2022-08-17T17:39:23.849Z,4.80
2022-08-17T17:41:56.791Z,5.18
2022-08-17T17:44:33.101Z,6.25
2022-08-17T17:47:04.040Z,4.80
2022-08-17T17:49:45.463Z,4.93
2022-08-17T17:52:28.630Z,5.30
2022-08-17T17:55:23.487Z,4.80
2022-08-17T17:58:14.460Z,5.22
2022-08-17T18:01:42.202Z,6.70
2022-08-17T18:04:46.365Z,5.63
2022-08-17T18:07:24.191Z,5.45
2022-08-17T18:10:13.766Z,5.55
2022-08-17T18:13:20.949Z,4.43
2022-08-17T18:15:52.337Z,4.40
2022-08-17T18:18:38.203Z,3.83
2022-08-17T18:21:19.639Z,3.92
2022-08-17T18:24:05.286Z,2.80
2022-08-17T18:26:33.984Z,3.90
2022-08-17T18:29:21.995Z,3.20
2022-08-17T18:32:26.315Z,2.72
2022-08-17T18:35:28.174Z,2.13
2022-08-17T18:38:31.548Z,1.90
2022-08-17T18:44:25.176Z,2.20
2022-08-17T18:47:24.978Z,2.53
2022-08-17T18:49:58.556Z,3.08
2022-08-17T18:52:30.843Z,2.60
2022-08-17T18:55:12.073Z,2.33
2022-08-17T18:57:46.419Z,3.42
2022-08-17T19:00:45.184Z,4.25
2022-08-17T19:03:18.339Z,2.85
2022-08-17T19:05:52.215Z,2.85
2022-08-17T19:08:30.274Z,2.95
2022-08-17T19:11:06.080Z,2.65
2022-08-17T19:13:52.438Z,3.33
2022-08-17T19:17:09.515Z,3.00
2022-08-17T19:20:25.297Z,3.30
2022-08-17T19:23:26.100Z,3.00
2022-08-17T19:25:58.856Z,3.20
2022-08-17T19:28:57.746Z,3.45
2022-08-17T19:31:29.872Z,2.70
2022-08-17T19:33:59.023Z,2.65
2022-08-17T19:36:40.081Z,3.63
2022-08-17T19:39:44.714Z,3.20
2022-08-17T19:42:15.626Z,3.42
2022-08-17T19:45:07.449Z,3.65
2022-08-17T19:47:55.128Z,3.35
2022-08-17T19:50:53.142Z,3.38
2022-08-17T19:54:08.734Z,2.50
2022-08-17T19:57:09.676Z,3.60
2022-08-17T19:59:57.233Z,3.88
2022-08-17T20:02:53.921Z,3.05
2022-08-17T20:06:10.938Z,3.47
2022-08-17T20:08:39.799Z,3.35
2022-08-17T20:11:15.050Z,3.72
2022-08-17T20:14:07.487Z,3.40
2022-08-17T20:16:36.420Z,3.50
2022-08-17T20:19:25.281Z,3.45
2022-08-17T20:22:03.806Z,4.25
2022-08-17T20:24:50.754Z,5.10
2022-08-17T20:27:31.892Z,4.07
2022-08-17T20:30:06.959Z,4.38
2022-08-17T20:32:56.583Z,2.95
2022-08-17T20:35:28.897Z,2.33
2022-08-17T20:38:05.269Z,2.50
2022-08-17T20:40:40.204Z,2.33
2022-08-17T20:43:34.012Z,2.25
2022-08-17T20:46:29.472Z,2.47
2022-08-17T20:49:14.761Z,2.40
2022-08-17T20:52:07.997Z,1.98
2022-08-17T20:54:57.504Z,1.88
2022-08-17T20:57:38.231Z,2.80
2022-08-17T21:00:30.403Z,2.03
2022-08-17T21:03:23.405Z,2.10
2022-08-17T21:05:57.401Z,1.83
2022-08-17T21:08:54.902Z,1.60
2022-08-17T21:11:57.235Z,2.47
2022-08-17T21:14:59.182Z,2.03
2022-08-17T21:17:59.576Z,2.30
2022-08-17T21:20:48.611Z,1.83
2022-08-17T21:23:32.669Z,1.92
2022-08-17T21:27:00.431Z,1.95
2022-08-17T21:29:33.816Z,1.65
2022-08-17T21:32:06.207Z,2.65
2022-08-17T21:35:06.750Z,2.35
2022-08-17T21:37:46.896Z,2.60
2022-08-17T21:40:18.867Z,3.22
2022-08-17T21:42:59.971Z,2.72
2022-08-17T21:45:35.801Z,3.13
2022-08-17T21:48:24.322Z,2.35
2022-08-17T21:51:21.522Z,3.05
2022-08-17T21:53:58.765Z,2.92
2022-08-17T21:56:37.063Z,3.65
2022-08-17T21:59:33.247Z,3.97
2022-08-17T22:02:30.401Z,3.88
2022-08-17T22:05:11.403Z,3.95
2022-08-17T22:07:43.021Z,3.53
2022-08-17T22:10:49.368Z,3.65
2022-08-17T22:13:18.144Z,4.05
2022-08-17T22:16:15.420Z,4.10
2022-08-17T22:18:58.817Z,4.88
2022-08-17T22:21:27.647Z,4.32
2022-08-17T22:24:15.599Z,3.80
2022-08-17T22:27:12.016Z,4.65
2022-08-17T22:29:57.754Z,3.70
2022-08-17T22:32:45.669Z,4.05
2022-08-17T22:35:42.005Z,4.65
2022-08-17T22:38:20.110Z,5.45
2022-08-17T22:41:28.102Z,5.07
2022-08-17T22:43:57.605Z,5.28
2022-08-17T22:46:27.091Z,5.10
2022-08-17T22:48:58.403Z,4.80
2022-08-17T22:51:30.146Z,4.22
2022-08-17T22:54:21.186Z,4.40
2022-08-17T22:57:19.188Z,4.93
2022-08-17T22:59:50.783Z,5.22
2022-08-17T23:02:29.935Z,4.47
2022-08-17T23:05:10.553Z,5.63
2022-08-17T23:07:44.340Z,5.20
2022-08-17T23:10:13.715Z,4.60
2022-08-17T23:12:42.619Z,4.32
2022-08-17T23:15:15.079Z,4.65
2022-08-17T23:17:44.496Z,4.78
2022-08-17T23:20:16.086Z,4.72
2022-08-17T23:22:52.461Z,5.13
2022-08-17T23:25:31.215Z,4.97
2022-08-17T23:28:02.044Z,4.95
2022-08-17T23:30:33.513Z,5.97
2022-08-17T23:33:06.493Z,4.95
2022-08-17T23:35:39.053Z,5.07
2022-08-17T23:38:11.562Z,4.75
2022-08-17T23:40:40.707Z,5.97
2022-08-17T23:43:24.322Z,5.30
2022-08-17T23:45:55.556Z,5.47
2022-08-17T23:48:35.677Z,5.32
2022-08-17T23:51:15.331Z,4.82
2022-08-17T23:54:07.222Z,4.88
2022-08-17T23:56:47.262Z,4.78
2022-08-17T23:59:22.781Z,5.50
